Pagrindinis puslapis
METAR-TAF:

METAR-TAF

Oro uostai :

Marianhamina, Suomija

platuma: 60-07N, ilguma: 019-54E, Aukštis: 6 m

Dabartinis oras

Ataskaita buvo paskelbta 28 minutes, ne 11:20 UTC
Vėjas 11 kt iš Pietų, svyruoja nuo Pietų/Pietryčių ir Pietvakarių
Temperatūra 18°C
Drėgmė 73%
Slėgis 1023 hPa
Matomumas 10 km arba daugiau
Mažai debesys ne aukštis 2600 ft

METAR: EFMA 221120Z AUTO 19011KT 160V220 9999 FEW026 18/13 Q1023

Laikas: 14:48 (11:48 UTC)

Prognozė

Ataskaita buvo paskelbta 26 minutes, ne 11:22 UTC
Prognozė galioja nuo 22 metu 12 UTC su 22 metu 21 UTC
Vėjas 12 kt iš Pietų/Pietvakarių
Matomumas 10 km arba daugiau
nėra debesų žemiau 1500 m ir nėra kamuolinių lietaus debesų
Laikinai
nuo 22 metu 18 UTC su 22 metu 21 UTC
Išsisklaidę debesys ne aukštis 4500 ft, Liūtiniai kamuoliniai debesys.

TAF: EFMA 221122Z 2212/2221 21012KT CAVOK TEMPO 2218/2221 SCT045CB

Orai ataskaitas ir orų prognozės (METAR, TAF).

turimą stotys yra geltonos ir raudonos taškus žemėlapyje.

Perkelti pele per norėdami pamatyti stoties vardą.

Tada spustelėkite, norėdami matyti oro stebėjimo ir prognozės.

Norėdami pakeisti žemėlapį: spustelėkite ant žalios mygtukų su juodo kryžiaus žemyn,; žalią mygtuką su brūkšneliu, jei norite nutolinti; arba žalių rodyklių gretimoms žemėlapius.


METAR-TAF: